Terminal Aerodrome Forecast
Issued by NWS Brownsville, TX

Home | Current Version | Previous Version | Text Only | Print | Product List | Glossary On
Versions: 1 2 3 4 5 6 7 8 9 10 11 12 13 14 15 16 17
000
FTUS44 KBRO 271154 AAA
TAFHRL
TAF AMD
KHRL 271154Z 2712/2812 12005KT P6SM FEW014 SCT023
      TEMPO 2712/2714 BKN025
     FM271500 15010KT P6SM SCT025 BKN040
     FM271700 16014G19KT P6SM SCT025 SCT040
     FM280100 14010KT P6SM SCT040
     FM280400 12007KT P6SM BKN025=

USA.gov is the U.S. government's official web portal to all federal, state and local government web resources and services.